Time;durP1;ratioP1;P1;durP2;ratioP2;P2;SDS_P1;SDS_P2;PMS_P1;PMS_P2;Temp;Humidity;BMP_temperature;BMP_pressure;BME280_temperature;BME280_humidity;BME280_pressure;Samples;Min_cycle;Max_cycle;Signal;HPM_P1;HPM_P2
2022/09/28 00:01:17;;;;;;;2.47;0.80;;;7.60;99.90;;;;;;5007736;28;20615;-64
2022/09/28 00:03:43;;;;;;;2.83;0.80;;;7.60;99.90;;;;;;5009424;28;20038;-65
2022/09/28 00:06:12;;;;;;;1.40;0.77;;;7.70;99.90;;;;;;5007772;28;20026;-63
2022/09/28 00:08:38;;;;;;;3.08;1.10;;;7.70;99.90;;;;;;5008282;28;20029;-65
2022/09/28 00:11:06;;;;;;;1.20;0.65;;;7.80;99.90;;;;;;5007111;28;20022;-63
2022/09/28 00:13:32;;;;;;;3.72;0.90;;;7.80;99.90;;;;;;5009194;28;20104;-69
2022/09/28 00:16:14;;;;;;;1.30;0.73;;;7.70;99.90;;;;;;5009520;28;20040;-63
2022/09/28 00:18:40;;;;;;;2.60;0.90;;;7.80;99.90;;;;;;5008845;28;20034;-65
2022/09/28 00:21:13;;;;;;;2.97;1.10;;;7.80;99.90;;;;;;5005003;28;20176;-65
2022/09/28 00:26:26;;;;;;;2.60;1.40;;;7.80;99.90;;;;;;5002394;28;20068;-64
2022/09/28 00:28:53;;;;;;;2.45;1.55;;;7.80;99.90;;;;;;4990305;28;20140;-66
2022/09/28 00:31:19;;;;;;;2.63;1.50;;;7.80;99.90;;;;;;5007618;28;20386;-64
2022/09/28 00:33:48;;;;;;;2.30;1.30;;;7.90;99.90;;;;;;5007051;28;20032;-64
2022/09/28 00:36:13;;;;;;;2.83;0.70;;;7.80;99.90;;;;;;5008276;28;20149;-64
2022/09/28 00:38:39;;;;;;;1.83;0.80;;;7.80;99.90;;;;;;5008008;28;20037;-68
2022/09/28 00:41:05;;;;;;;2.22;0.90;;;7.80;99.90;;;;;;5007292;28;20390;-66
2022/09/28 00:43:31;;;;;;;1.02;0.43;;;7.80;99.90;;;;;;5009520;28;20467;-65
2022/09/28 00:46:22;;;;;;;2.72;0.50;;;7.80;99.90;;;;;;5007114;28;20457;-65
2022/09/28 00:49:06;;;;;;;0.98;0.50;;;7.80;99.90;;;;;;5001993;28;20130;-69
2022/09/28 00:51:34;;;;;;;1.38;0.50;;;7.80;99.90;;;;;;5008247;28;20157;-65
2022/09/28 00:54:04;;;;;;;2.80;0.52;;;7.80;99.90;;;;;;5002862;28;20042;-65
2022/09/28 00:56:32;;;;;;;4.25;0.68;;;7.80;99.90;;;;;;4990098;28;20146;-65
2022/09/28 00:58:59;;;;;;;1.17;0.50;;;7.80;99.90;;;;;;4987887;28;20033;-65
2022/09/28 01:01:26;;;;;;;1.25;0.68;;;7.80;99.90;;;;;;4973455;28;20041;-64
2022/09/28 01:03:53;;;;;;;1.15;0.50;;;7.90;99.90;;;;;;4965660;28;20367;-67
2022/09/28 01:06:26;;;;;;;1.15;0.60;;;7.90;99.90;;;;;;4985493;28;20030;-64
2022/09/28 01:08:57;;;;;;;4.82;0.52;;;7.90;99.90;;;;;;4990135;28;20026;-67
2022/09/28 01:11:24;;;;;;;2.30;0.55;;;7.90;99.90;;;;;;4997500;28;20084;-64
2022/09/28 01:13:53;;;;;;;1.65;0.60;;;7.90;99.90;;;;;;4998558;28;20176;-68
2022/09/28 01:16:37;;;;;;;1.88;0.70;;;7.90;99.90;;;;;;5006893;28;20065;-65
2022/09/28 01:19:33;;;;;;;1.58;0.60;;;8.00;99.90;;;;;;4982518;28;20034;-63
2022/09/28 01:22:26;;;;;;;1.45;0.60;;;8.00;99.90;;;;;;4991998;28;20066;-63
2022/09/28 01:25:24;;;;;;;1.38;0.60;;;8.10;99.90;;;;;;4995917;28;20494;-67
2022/09/28 01:27:56;;;;;;;2.50;0.60;;;8.10;99.90;;;;;;4976050;28;20081;-68
2022/09/28 01:30:22;;;;;;;1.33;0.70;;;8.10;99.90;;;;;;4994032;28;20036;-65
2022/09/28 01:33:00;;;;;;;1.48;0.80;;;8.10;99.90;;;;;;4997250;28;20029;-64
2022/09/28 01:35:34;;;;;;;2.42;0.75;;;8.10;99.90;;;;;;4987150;28;20381;-64
2022/09/28 01:38:17;;;;;;;2.58;0.90;;;8.20;99.90;;;;;;4988403;28;20407;-65
2022/09/28 01:40:46;;;;;;;1.15;0.50;;;8.20;99.90;;;;;;4989684;28;20058;-63
2022/09/28 01:43:16;;;;;;;2.42;0.55;;;8.20;99.90;;;;;;4988719;28;20107;-64
2022/09/28 01:45:53;;;;;;;1.70;0.80;;;8.20;99.90;;;;;;4996197;28;20129;-64
2022/09/28 01:48:25;;;;;;;9.88;0.90;;;8.20;99.90;;;;;;4987849;28;20041;-65
2022/09/28 01:50:56;;;;;;;1.90;0.70;;;8.30;99.90;;;;;;4981395;28;20038;-64
2022/09/28 01:53:29;;;;;;;7.82;0.88;;;8.30;99.90;;;;;;4991465;28;20057;-64
2022/09/28 01:55:58;;;;;;;3.47;0.70;;;8.30;99.90;;;;;;4999323;28;20034;-69
2022/09/28 01:58:35;;;;;;;7.25;0.80;;;8.40;99.90;;;;;;5015338;28;20047;-66
2022/09/28 02:01:26;;;;;;;0.80;0.50;;;8.30;99.90;;;;;;5002795;28;20033;-65
2022/09/28 02:04:01;;;;;;;2.70;0.70;;;8.40;99.90;;;;;;4944187;28;20029;-65
2022/09/28 02:06:37;;;;;;;1.75;0.55;;;8.40;99.90;;;;;;5005419;28;20427;-65
2022/09/28 02:09:09;;;;;;;3.60;0.80;;;8.40;99.90;;;;;;5006165;28;20033;-64
2022/09/28 02:11:36;;;;;;;1.08;0.50;;;8.40;99.90;;;;;;5007902;28;20030;-64
2022/09/28 02:14:09;;;;;;;2.10;0.60;;;8.50;99.90;;;;;;4987772;28;20029;-64
2022/09/28 02:16:42;;;;;;;1.67;0.57;;;8.50;99.90;;;;;;5007235;28;20177;-65
2022/09/28 02:19:26;;;;;;;2.97;0.50;;;8.50;99.90;;;;;;4997345;28;20998;-69
2022/09/28 02:22:27;;;;;;;1.33;0.45;;;8.50;99.90;;;;;;5000110;28;20049;-66
2022/09/28 02:24:55;;;;;;;;;;;8.40;99.90;;;;;;4971052;28;20066;-65
2022/09/28 02:27:29;;;;;;;3.30;0.50;;;8.50;99.90;;;;;;5008005;28;19920;-65
2022/09/28 02:29:55;;;;;;;2.20;1.02;;;8.50;99.90;;;;;;4990515;28;20058;-69
2022/09/28 02:32:23;;;;;;;2.88;0.63;;;8.50;99.90;;;;;;5005517;28;20041;-65
2022/09/28 02:34:49;;;;;;;2.92;0.60;;;8.50;99.90;;;;;;5006483;28;20510;-64
2022/09/28 02:37:14;;;;;;;3.38;0.70;;;8.50;99.90;;;;;;5004676;28;20101;-63
2022/09/28 02:39:40;;;;;;;2.92;0.80;;;8.50;99.90;;;;;;5007997;28;20431;-67
2022/09/28 02:42:30;;;;;;;3.22;0.80;;;8.50;99.90;;;;;;5005927;28;20474;-65
2022/09/28 02:45:10;;;;;;;2.45;0.80;;;8.50;99.90;;;;;;5006830;28;20021;-68
2022/09/28 02:48:09;;;;;;;3.67;0.60;;;8.50;99.90;;;;;;5006154;28;20510;-67
2022/09/28 02:50:35;;;;;;;4.03;0.93;;;8.50;99.90;;;;;;4998480;28;20029;-66
2022/09/28 02:53:13;;;;;;;2.78;1.00;;;8.60;99.90;;;;;;5003002;28;20038;-65
2022/09/28 02:55:57;;;;;;;5.00;1.00;;;8.60;99.90;;;;;;5007122;28;20395;-64
2022/09/28 02:58:34;;;;;;;4.72;0.90;;;8.70;99.90;;;;;;4990425;28;20129;-63
2022/09/28 03:01:11;;;;;;;5.00;0.98;;;8.70;99.90;;;;;;5004552;28;20038;-67
2022/09/28 03:03:48;;;;;;;2.58;1.00;;;8.70;99.90;;;;;;5005561;28;20025;-67
2022/09/28 03:06:25;;;;;;;3.75;0.60;;;8.80;99.90;;;;;;4997019;28;20034;-63
2022/09/28 03:09:02;;;;;;;3.78;0.88;;;8.70;99.90;;;;;;5004917;28;20038;-64
2022/09/28 03:11:36;;;;;;;5.28;0.85;;;8.70;99.90;;;;;;4992390;28;20030;-63
2022/09/28 03:14:03;;;;;;;2.95;0.80;;;8.70;99.90;;;;;;4999452;28;20038;-64
2022/09/28 03:16:30;;;;;;;3.85;1.40;;;8.70;99.90;;;;;;5011401;28;20733;-64
2022/09/28 03:18:56;;;;;;;4.75;1.10;;;8.70;99.90;;;;;;5009220;28;20117;-64
2022/09/28 03:21:22;;;;;;;3.33;1.13;;;8.70;99.90;;;;;;5010854;28;20101;-65
2022/09/28 03:23:48;;;;;;;4.88;1.02;;;8.80;99.90;;;;;;4991484;28;20030;-65
2022/09/28 03:26:15;;;;;;;7.57;1.17;;;8.80;99.90;;;;;;5010541;28;20041;-64
2022/09/28 03:28:41;;;;;;;4.43;1.10;;;8.90;99.90;;;;;;5009420;28;20478;-65
2022/09/28 03:31:07;;;;;;;4.10;1.10;;;8.90;99.90;;;;;;5010381;28;20041;-65
2022/09/28 03:33:33;;;;;;;5.22;1.02;;;8.90;99.90;;;;;;5007466;28;20034;-64
2022/09/28 03:35:58;;;;;;;5.22;1.15;;;8.90;99.90;;;;;;5010034;28;20033;-69
2022/09/28 03:38:24;;;;;;;4.55;1.00;;;8.90;99.90;;;;;;5009392;28;20048;-64
2022/09/28 03:40:57;;;;;;;2.15;0.93;;;8.90;99.90;;;;;;5011750;28;20030;-66
2022/09/28 03:43:24;;;;;;;4.25;0.93;;;8.90;99.90;;;;;;4990262;28;20646;-65
2022/09/28 03:45:54;;;;;;;2.35;0.80;;;8.90;99.90;;;;;;5009608;28;20085;-64
2022/09/28 03:48:25;;;;;;;4.25;1.25;;;8.90;99.90;;;;;;5009763;28;20026;-64
2022/09/28 03:50:56;;;;;;;6.43;1.50;;;8.90;99.90;;;;;;5009521;28;20042;-65
2022/09/28 03:53:22;;;;;;;6.03;1.10;;;8.90;99.90;;;;;;5007380;28;20049;-64
2022/09/28 03:55:49;;;;;;;8.73;1.10;;;8.90;99.90;;;;;;4992551;28;20060;-64
2022/09/28 03:58:15;;;;;;;6.75;1.40;;;8.90;99.90;;;;;;5007942;28;20026;-64
2022/09/28 04:00:41;;;;;;;4.50;1.08;;;8.90;99.90;;;;;;5009331;28;20057;-65
2022/09/28 04:03:07;;;;;;;4.53;0.93;;;8.90;99.90;;;;;;5003185;28;20468;-66
2022/09/28 04:05:33;;;;;;;5.72;1.13;;;8.90;99.90;;;;;;5004942;28;20026;-64
2022/09/28 04:07:58;;;;;;;4.65;1.17;;;8.90;99.90;;;;;;4988194;28;20040;-64
2022/09/28 04:10:25;;;;;;;3.67;1.02;;;8.90;99.90;;;;;;5000804;28;20600;-64
2022/09/28 04:12:57;;;;;;;7.43;1.35;;;9.00;99.90;;;;;;5002420;28;20045;-65
2022/09/28 04:15:23;;;;;;;3.25;1.00;;;9.00;99.90;;;;;;5009634;28;20041;-65
2022/09/28 04:17:50;;;;;;;4.70;1.27;;;9.00;99.90;;;;;;5010887;28;20045;-65
2022/09/28 04:20:16;;;;;;;4.25;1.00;;;8.90;99.90;;;;;;5009787;28;20505;-67
2022/09/28 04:22:43;;;;;;;4.90;1.08;;;9.00;99.90;;;;;;5007201;28;20351;-66
2022/09/28 04:25:09;;;;;;;3.10;1.00;;;9.00;99.90;;;;;;5007964;28;20041;-64
2022/09/28 04:30:20;;;;;;;2.85;1.20;;;9.10;99.90;;;;;;5004050;28;20034;-69
2022/09/28 04:32:46;;;;;;;4.97;1.52;;;9.10;99.90;;;;;;5008734;28;20033;-63
2022/09/28 04:35:12;;;;;;;2.92;1.20;;;9.10;99.90;;;;;;5000523;28;20037;-66
2022/09/28 04:37:39;;;;;;;6.25;1.55;;;9.10;99.90;;;;;;4995888;28;20034;-65
2022/09/28 04:40:05;;;;;;;7.78;1.40;;;9.10;99.90;;;;;;5004229;28;20390;-68
2022/09/28 04:42:30;;;;;;;2.63;1.02;;;9.10;99.90;;;;;;5008305;28;20030;-64
2022/09/28 04:44:57;;;;;;;7.57;1.25;;;9.10;99.90;;;;;;5001880;28;20041;-64
2022/09/28 04:47:23;;;;;;;2.67;1.00;;;9.10;99.90;;;;;;5007015;28;20423;-64
2022/09/28 04:49:49;;;;;;;3.42;1.08;;;9.10;99.90;;;;;;5007422;28;20402;-66
2022/09/28 04:52:15;;;;;;;5.18;1.23;;;9.10;99.90;;;;;;5008155;28;20042;-64
2022/09/28 04:54:41;;;;;;;3.17;1.30;;;9.10;99.90;;;;;;5007482;28;20049;-65
2022/09/28 04:57:06;;;;;;;3.75;1.15;;;9.10;99.90;;;;;;5006950;28;20573;-69
2022/09/28 04:59:32;;;;;;;5.88;1.30;;;9.10;99.90;;;;;;4991578;28;20018;-67
2022/09/28 05:01:58;;;;;;;4.80;1.05;;;9.10;99.90;;;;;;5007626;28;20049;-65
2022/09/28 05:04:23;;;;;;;4.55;0.70;;;9.00;99.90;;;;;;5006610;28;20034;-70
2022/09/28 05:06:49;;;;;;;3.40;0.52;;;9.00;99.90;;;;;;5006534;28;20091;-67
2022/09/28 05:09:15;;;;;;;3.80;0.80;;;8.90;99.90;;;;;;5005407;28;20036;-65
2022/09/28 05:11:41;;;;;;;2.63;0.80;;;8.90;99.90;;;;;;5004796;28;20079;-68
2022/09/28 05:14:06;;;;;;;5.75;0.60;;;8.90;99.90;;;;;;5007259;28;20941;-68
2022/09/28 05:16:35;;;;;;;2.25;0.80;;;8.90;99.90;;;;;;5001982;28;20493;-65
2022/09/28 05:19:00;;;;;;;4.25;1.27;;;8.80;99.90;;;;;;5004584;28;20061;-65
2022/09/28 05:21:28;;;;;;;2.92;0.60;;;8.70;99.90;;;;;;5003943;28;20115;-67
2022/09/28 05:23:55;;;;;;;1.98;0.60;;;8.70;99.90;;;;;;5006189;28;20159;-63
2022/09/28 05:26:22;;;;;;;2.03;0.75;;;8.70;99.90;;;;;;5003720;28;20575;-65
2022/09/28 05:28:47;;;;;;;1.77;0.50;;;8.70;99.90;;;;;;5008120;28;20022;-65
2022/09/28 05:31:13;;;;;;;1.48;0.60;;;8.70;99.90;;;;;;4999262;28;20036;-64
2022/09/28 05:33:39;;;;;;;2.85;0.50;;;8.70;99.90;;;;;;5005173;28;20681;-65
2022/09/28 05:36:09;;;;;;;4.95;0.52;;;8.70;99.90;;;;;;5005607;28;20038;-67
2022/09/28 05:38:35;;;;;;;3.13;0.60;;;8.70;99.90;;;;;;5003225;28;20089;-65
2022/09/28 05:41:01;;;;;;;2.88;0.60;;;8.70;99.90;;;;;;5007025;28;20042;-64
2022/09/28 05:43:27;;;;;;;4.20;0.75;;;8.70;99.90;;;;;;5005660;28;20233;-67
2022/09/28 05:45:52;;;;;;;3.50;0.80;;;8.60;99.90;;;;;;5006663;28;20150;-66
2022/09/28 05:48:18;;;;;;;4.10;0.90;;;8.60;99.90;;;;;;5006194;28;20029;-65
2022/09/28 05:50:43;;;;;;;2.55;1.20;;;8.60;99.90;;;;;;5005059;28;20149;-64
2022/09/28 05:53:09;;;;;;;1.17;0.80;;;8.60;99.90;;;;;;5019131;28;20069;-70
2022/09/28 05:55:36;;;;;;;3.42;1.10;;;8.60;99.90;;;;;;5005155;28;20048;-66
2022/09/28 05:58:04;;;;;;;4.40;1.15;;;8.60;99.90;;;;;;5001833;28;20045;-68
2022/09/28 06:00:31;;;;;;;3.25;0.85;;;8.50;99.90;;;;;;5008161;28;20131;-65
2022/09/28 06:03:06;;;;;;;2.30;0.70;;;8.50;99.90;;;;;;5009744;28;20034;-65
2022/09/28 06:05:34;;;;;;;2.63;0.65;;;8.40;99.90;;;;;;5009006;28;20030;-66
2022/09/28 06:08:01;;;;;;;2.08;0.82;;;8.40;99.90;;;;;;5009571;28;20387;-66
2022/09/28 06:10:27;;;;;;;4.30;0.82;;;8.40;99.90;;;;;;5009261;28;20141;-65
2022/09/28 06:12:56;;;;;;;2.42;0.70;;;8.30;99.90;;;;;;5009605;28;20029;-66
2022/09/28 06:15:24;;;;;;;4.40;0.75;;;8.20;99.90;;;;;;5008788;28;20034;-65
2022/09/28 06:18:00;;;;;;;1.95;0.60;;;8.20;99.90;;;;;;5009595;28;20040;-66
2022/09/28 06:20:29;;;;;;;4.93;0.98;;;8.20;99.90;;;;;;5008955;28;20056;-65
2022/09/28 06:22:55;;;;;;;1.35;0.60;;;8.30;99.90;;;;;;5009607;28;20105;-65
2022/09/28 06:25:22;;;;;;;1.50;0.65;;;8.20;99.90;;;;;;5008791;28;20160;-65
2022/09/28 06:27:58;;;;;;;2.25;0.77;;;8.20;99.90;;;;;;5009500;28;20100;-65
2022/09/28 06:30:25;;;;;;;2.50;0.68;;;8.20;99.90;;;;;;5008795;28;20040;-65
2022/09/28 06:32:53;;;;;;;1.38;0.70;;;8.20;99.90;;;;;;5009576;28;20033;-64
2022/09/28 06:35:19;;;;;;;2.67;1.10;;;8.20;99.90;;;;;;5008641;28;20063;-63
2022/09/28 06:37:45;;;;;;;1.35;0.73;;;8.30;99.90;;;;;;5009538;28;20034;-64
2022/09/28 06:40:11;;;;;;;5.63;1.08;;;8.20;99.90;;;;;;5009172;28;20034;-67
2022/09/28 06:42:36;;;;;;;2.47;1.10;;;8.30;99.90;;;;;;5009104;28;20018;-63
2022/09/28 06:45:03;;;;;;;6.30;1.15;;;8.30;99.90;;;;;;5010031;28;20056;-65
2022/09/28 06:47:30;;;;;;;5.13;1.20;;;8.30;99.90;;;;;;5012364;28;20878;-65
2022/09/28 06:49:56;;;;;;;4.95;1.15;;;8.30;99.90;;;;;;5013159;28;20467;-65
2022/09/28 06:52:22;;;;;;;4.32;1.33;;;8.30;99.90;;;;;;5012387;28;20034;-66
2022/09/28 06:54:47;;;;;;;5.05;1.40;;;8.30;99.90;;;;;;5013087;28;20050;-65
2022/09/28 06:57:13;;;;;;;4.45;1.38;;;8.30;99.90;;;;;;5012472;28;20030;-69
2022/09/28 06:59:39;;;;;;;4.05;1.35;;;8.30;99.90;;;;;;5012548;28;20045;-65
2022/09/28 07:02:05;;;;;;;3.40;1.05;;;8.40;99.90;;;;;;5012241;28;20041;-65
2022/09/28 07:04:30;;;;;;;3.78;1.38;;;8.40;99.90;;;;;;5011902;28;20110;-65
2022/09/28 07:06:57;;;;;;;5.03;1.77;;;8.40;99.90;;;;;;5012364;28;20026;-65
2022/09/28 07:09:23;;;;;;;4.47;1.48;;;8.40;99.90;;;;;;5011678;28;20422;-65
2022/09/28 07:11:49;;;;;;;4.88;1.30;;;8.40;99.90;;;;;;5012597;28;20100;-64
2022/09/28 07:14:14;;;;;;;2.95;1.48;;;8.40;99.90;;;;;;5011936;28;20750;-69
2022/09/28 07:16:40;;;;;;;7.93;1.67;;;8.40;99.90;;;;;;5012730;28;20355;-65
2022/09/28 07:19:06;;;;;;;6.53;2.03;;;8.40;99.90;;;;;;5012419;28;20038;-65
2022/09/28 07:21:31;;;;;;;4.22;1.90;;;8.40;99.90;;;;;;5011824;28;20037;-64
2022/09/28 07:23:57;;;;;;;4.07;2.15;;;8.50;99.90;;;;;;4994879;28;20026;-65
2022/09/28 07:26:22;;;;;;;4.10;2.25;;;8.40;99.90;;;;;;5011385;28;20038;-65
2022/09/28 07:28:48;;;;;;;7.43;2.40;;;8.50;99.90;;;;;;5012056;28;20097;-64
2022/09/28 07:31:14;;;;;;;5.43;2.30;;;8.50;99.90;;;;;;5012026;28;20034;-68
2022/09/28 07:33:39;;;;;;;4.53;2.22;;;8.50;99.90;;;;;;5012389;28;20117;-64
2022/09/28 07:36:06;;;;;;;7.93;2.55;;;8.50;99.90;;;;;;5011853;28;20080;-64
2022/09/28 07:38:34;;;;;;;6.45;2.40;;;8.40;99.90;;;;;;5011317;28;20033;-66
2022/09/28 07:41:13;;;;;;;6.38;2.40;;;8.50;99.90;;;;;;5012072;28;20026;-66
2022/09/28 07:43:40;;;;;;;4.55;2.25;;;8.50;99.90;;;;;;4994214;28;20096;-64
2022/09/28 07:46:10;;;;;;;6.10;3.05;;;8.50;99.90;;;;;;5012181;28;20080;-65
2022/09/28 07:48:42;;;;;;;5.88;3.00;;;8.50;99.90;;;;;;5011417;28;20022;-64
2022/09/28 07:51:09;;;;;;;5.68;3.38;;;8.60;99.90;;;;;;5011725;28;20091;-65
2022/09/28 07:53:37;;;;;;;5.20;2.90;;;8.60;99.90;;;;;;4993302;28;20053;-67
2022/09/28 07:56:07;;;;;;;7.82;3.28;;;8.70;99.90;;;;;;5011650;28;20541;-63
2022/09/28 07:58:34;;;;;;;7.45;3.28;;;8.70;99.90;;;;;;5011167;28;20470;-66
2022/09/28 08:01:09;;;;;;;6.03;2.88;;;8.80;99.90;;;;;;5012239;28;20061;-66
2022/09/28 08:03:35;;;;;;;6.07;2.92;;;8.80;99.90;;;;;;5027496;28;20620;-65
2022/09/28 08:06:04;;;;;;;8.55;3.10;;;8.90;99.90;;;;;;5031552;28;20099;-64
2022/09/28 08:08:32;;;;;;;5.70;3.00;;;9.00;99.90;;;;;;5030580;28;20033;-65
2022/09/28 08:10:58;;;;;;;9.75;2.70;;;9.10;99.90;;;;;;5022725;28;20041;-63
2022/09/28 08:13:24;;;;;;;6.28;2.90;;;9.20;99.90;;;;;;5010843;28;20030;-65
2022/09/28 08:15:52;;;;;;;7.43;3.13;;;9.10;99.90;;;;;;5011382;28;20048;-65
2022/09/28 08:18:18;;;;;;;6.28;2.83;;;9.20;99.90;;;;;;5010807;28;20026;-66
2022/09/28 08:23:41;;;;;;;8.93;3.28;;;9.20;99.90;;;;;;4987381;28;20364;-65
2022/09/28 08:26:07;;;;;;;8.55;3.10;;;9.20;99.90;;;;;;4993370;28;20040;-63
2022/09/28 08:28:34;;;;;;;9.15;3.53;;;9.30;99.90;;;;;;5010255;28;20032;-64
2022/09/28 08:31:06;;;;;;;5.28;2.92;;;9.20;99.90;;;;;;4993650;28;20415;-65
2022/09/28 08:33:32;;;;;;;7.63;3.75;;;9.20;99.90;;;;;;5010505;28;20026;-64
2022/09/28 08:35:59;;;;;;;10.50;3.35;;;9.30;99.90;;;;;;5010612;28;20076;-65
2022/09/28 08:38:27;;;;;;;10.77;2.90;;;9.20;99.90;;;;;;5009846;28;20546;-65
2022/09/28 08:40:57;;;;;;;7.78;3.15;;;9.20;99.90;;;;;;5011050;28;20033;-65
2022/09/28 08:43:36;;;;;;;;;;;9.10;99.90;;;;;;5010982;28;20050;-65
2022/09/28 08:46:02;;;;;;;4.93;2.70;;;9.20;99.90;;;;;;5011136;28;19916;-66
2022/09/28 08:48:43;;;;;;;7.07;3.63;;;9.20;99.90;;;;;;5009928;28;20391;-66
2022/09/28 08:51:37;;;;;;;6.50;3.22;;;9.20;99.90;;;;;;5010798;28;20040;-64
2022/09/28 08:54:08;;;;;;;7.90;3.08;;;9.20;99.90;;;;;;5009994;28;20077;-63
2022/09/28 08:56:49;;;;;;;6.35;3.17;;;9.30;99.90;;;;;;5009709;28;20042;-65
2022/09/28 08:59:24;;;;;;;8.65;3.28;;;9.40;99.90;;;;;;5010529;28;20405;-66
2022/09/28 09:01:56;;;;;;;7.30;3.20;;;9.70;99.90;;;;;;5010826;28;20091;-65
2022/09/28 09:04:22;;;;;;;10.82;3.50;;;9.70;99.90;;;;;;5009952;28;20033;-65
2022/09/28 09:06:50;;;;;;;8.00;2.90;;;9.80;99.90;;;;;;5010658;28;20076;-64
2022/09/28 09:09:36;;;;;;;8.50;2.83;;;9.90;99.90;;;;;;5010010;28;20117;-63
2022/09/28 09:12:19;;;;;;;6.15;2.92;;;9.90;99.90;;;;;;5010696;28;20065;-64
2022/09/28 09:14:56;;;;;;;5.47;2.85;;;9.80;99.90;;;;;;5010003;28;20061;-66
2022/09/28 09:17:28;;;;;;;6.35;3.00;;;9.80;99.90;;;;;;5009881;28;20057;-68
2022/09/28 09:20:38;;;;;;;10.07;3.40;;;9.80;99.90;;;;;;5010240;28;20487;-65
2022/09/28 09:23:14;;;;;;;7.80;3.78;;;9.60;99.90;;;;;;4976968;28;20073;-65
2022/09/28 09:25:46;;;;;;;7.10;3.45;;;9.60;99.90;;;;;;5009917;28;20250;-66
2022/09/28 09:28:42;;;;;;;9.45;3.30;;;9.70;99.90;;;;;;5010300;28;20485;-65
2022/09/28 09:31:38;;;;;;;10.93;2.72;;;9.80;99.90;;;;;;4992666;28;20462;-65
2022/09/28 09:34:12;;;;;;;5.70;2.47;;;9.80;99.90;;;;;;5010271;28;20056;-65
2022/09/28 09:36:57;;;;;;;10.73;2.92;;;9.90;99.90;;;;;;5009073;28;20501;-66
2022/09/28 09:39:25;;;;;;;6.13;3.00;;;10.00;99.90;;;;;;5009114;28;20072;-70
2022/09/28 09:42:03;;;;;;;10.02;3.33;;;10.10;99.90;;;;;;5009828;28;20360;-66
2022/09/28 09:44:44;;;;;;;9.05;3.10;;;10.00;99.90;;;;;;5009262;28;20029;-63
2022/09/28 09:47:44;;;;;;;7.38;3.33;;;10.10;99.90;;;;;;5009989;28;20057;-65
2022/09/28 09:50:29;;;;;;;10.30;3.17;;;10.20;99.90;;;;;;4977414;28;20030;-65
2022/09/28 09:53:22;;;;;;;7.72;2.85;;;10.50;99.90;;;;;;5009964;28;20055;-64
2022/09/28 09:55:53;;;;;;;7.65;3.05;;;10.60;99.90;;;;;;4969568;28;20050;-64
2022/09/28 09:58:26;;;;;;;5.72;2.80;;;10.60;99.90;;;;;;4990219;28;20734;-64
2022/09/28 10:01:05;;;;;;;6.57;2.47;;;10.50;99.90;;;;;;4992736;28;20030;-65
2022/09/28 10:03:35;;;;;;;6.65;2.92;;;10.50;99.90;;;;;;4989466;28;20022;-65
2022/09/28 10:06:07;;;;;;;5.77;2.50;;;10.70;99.90;;;;;;4972687;28;20036;-65
2022/09/28 10:08:57;;;;;;;6.55;2.67;;;10.70;99.90;;;;;;4989268;28;20349;-65
2022/09/28 10:11:30;;;;;;;5.35;2.22;;;10.70;99.90;;;;;;4989573;28;20104;-67
2022/09/28 10:13:56;;;;;;;9.02;3.00;;;10.80;99.90;;;;;;4990111;28;20030;-65
2022/09/28 10:16:23;;;;;;;9.32;2.90;;;10.70;99.90;;;;;;4989736;28;20463;-69
2022/09/28 10:18:48;;;;;;;5.78;2.38;;;10.70;99.90;;;;;;4989300;28;20038;-65
2022/09/28 10:21:17;;;;;;;6.68;2.90;;;10.60;99.90;;;;;;4992433;28;20085;-65
2022/09/28 10:23:44;;;;;;;8.77;2.67;;;10.60;99.90;;;;;;4993324;28;20706;-65
2022/09/28 10:26:23;;;;;;;4.15;2.47;;;10.60;99.90;;;;;;4993690;28;20042;-65
2022/09/28 10:29:19;;;;;;;3.80;1.98;;;10.60;99.90;;;;;;4993375;28;20058;-65
2022/09/28 10:31:47;;;;;;;6.88;2.30;;;10.70;99.90;;;;;;4992107;28;20096;-66
2022/09/28 10:34:23;;;;;;;4.97;2.30;;;10.70;99.90;;;;;;4976286;28;20386;-65
2022/09/28 10:36:58;;;;;;;7.53;2.35;;;10.70;99.90;;;;;;4993518;28;20133;-65
2022/09/28 10:39:44;;;;;;;7.47;2.45;;;10.80;99.90;;;;;;4993285;28;20038;-69
2022/09/28 10:42:16;;;;;;;4.40;2.35;;;10.90;99.90;;;;;;4993882;28;20041;-67
2022/09/28 10:44:50;;;;;;;5.82;2.67;;;11.00;99.90;;;;;;4992906;28;20101;-65
2022/09/28 10:47:19;;;;;;;4.45;2.65;;;11.10;99.90;;;;;;4993647;28;20026;-65
2022/09/28 10:49:51;;;;;;;5.65;2.78;;;11.20;99.90;;;;;;4993093;28;20030;-65
2022/09/28 10:52:34;;;;;;;7.10;2.72;;;11.10;99.90;;;;;;4993626;28;20080;-63
2022/09/28 10:55:00;;;;;;;5.25;2.35;;;11.00;99.90;;;;;;5009080;28;20121;-66
2022/09/28 10:57:35;;;;;;;8.40;2.55;;;10.90;99.90;;;;;;5012371;28;20053;-68
2022/09/28 11:00:03;;;;;;;5.65;2.55;;;10.90;99.90;;;;;;5013101;28;20482;-64
2022/09/28 11:02:35;;;;;;;8.73;2.88;;;10.90;99.90;;;;;;5012157;28;20033;-67
2022/09/28 11:05:04;;;;;;;7.78;2.13;;;10.90;99.90;;;;;;5012980;28;20502;-66
2022/09/28 11:07:31;;;;;;;6.20;2.10;;;11.00;99.90;;;;;;5011335;28;20111;-65
2022/09/28 11:09:59;;;;;;;6.43;2.30;;;11.00;99.90;;;;;;5012884;28;20022;-66
2022/09/28 11:12:35;;;;;;;8.25;2.72;;;10.90;99.90;;;;;;5012475;28;20029;-66
2022/09/28 11:15:06;;;;;;;6.25;2.50;;;10.90;99.90;;;;;;5012637;28;20038;-64
2022/09/28 11:17:40;;;;;;;4.60;2.40;;;11.00;99.90;;;;;;5011870;28;20160;-65
2022/09/28 11:20:29;;;;;;;5.13;2.40;;;11.00;99.90;;;;;;5012492;28;20470;-63
2022/09/28 11:23:13;;;;;;;5.50;2.20;;;10.80;99.90;;;;;;5012735;28;20088;-65
2022/09/28 11:25:40;;;;;;;7.25;2.92;;;10.90;99.90;;;;;;5011781;28;20040;-65
2022/09/28 11:28:16;;;;;;;5.85;3.17;;;10.80;99.90;;;;;;5011308;28;20044;-65
2022/09/28 11:30:52;;;;;;;7.05;2.55;;;10.90;99.90;;;;;;5011201;28;20160;-63
2022/09/28 11:33:26;;;;;;;8.95;3.08;;;11.00;99.90;;;;;;5012673;28;20018;-66
2022/09/28 11:36:12;;;;;;;8.57;3.08;;;11.10;99.90;;;;;;5011346;28;20041;-64
2022/09/28 11:39:03;;;;;;;5.63;2.42;;;11.10;99.90;;;;;;5011106;28;20048;-65
2022/09/28 11:41:40;;;;;;;8.48;2.92;;;11.20;99.90;;;;;;5011858;28;20037;-66
2022/09/28 11:44:21;;;;;;;10.38;3.20;;;11.30;99.90;;;;;;5012261;28;20026;-62
2022/09/28 11:47:24;;;;;;;8.65;2.45;;;11.40;99.90;;;;;;5011336;28;20030;-66
2022/09/28 11:49:54;;;;;;;5.55;2.60;;;11.30;99.90;;;;;;5011634;28;20139;-65
2022/09/28 11:52:23;;;;;;;4.50;2.78;;;11.30;99.90;;;;;;5014114;28;20037;-64
2022/09/28 11:55:08;;;;;;;8.80;3.00;;;11.30;99.90;;;;;;5010985;28;20053;-64
2022/09/28 11:57:37;;;;;;;5.70;2.70;;;11.40;99.90;;;;;;5010802;28;20105;-64
2022/09/28 12:00:16;;;;;;;6.72;3.05;;;11.40;99.90;;;;;;5011767;28;20032;-64
2022/09/28 12:02:50;;;;;;;9.50;3.15;;;11.40;99.90;;;;;;5011116;28;20022;-64
2022/09/28 12:05:32;;;;;;;6.85;2.63;;;11.60;99.90;;;;;;5011877;28;20072;-65
2022/09/28 12:08:06;;;;;;;10.10;2.65;;;11.70;99.90;;;;;;5011741;28;20033;-65
2022/09/28 12:10:47;;;;;;;6.82;2.85;;;11.70;99.90;;;;;;5011013;28;20109;-67
2022/09/28 12:13:19;;;;;;;5.72;2.95;;;11.60;99.90;;;;;;5011263;28;20104;-65
2022/09/28 12:15:59;;;;;;;8.27;2.90;;;11.90;99.90;;;;;;5010735;28;20100;-65
2022/09/28 12:18:49;;;;;;;5.85;2.50;;;12.10;99.90;;;;;;5011604;28;20030;-65
2022/09/28 12:21:27;;;;;;;6.82;2.72;;;12.10;99.90;;;;;;5011529;28;20048;-63
2022/09/28 12:23:55;;;;;;;8.55;2.53;;;12.10;99.90;;;;;;5010890;28;20041;-66
2022/09/28 12:26:36;;;;;;;4.70;2.50;;;11.90;99.90;;;;;;4993715;28;20382;-65
2022/09/28 12:29:14;;;;;;;7.78;2.42;;;11.90;99.90;;;;;;5010875;28;20494;-65
2022/09/28 12:31:51;;;;;;;5.32;2.17;;;11.90;99.90;;;;;;5010548;28;20037;-67
2022/09/28 12:34:16;;;;;;;8.25;2.58;;;11.90;99.90;;;;;;5011235;28;20471;-65
2022/09/28 12:37:03;;;;;;;6.40;2.53;;;11.70;99.90;;;;;;5010114;28;20038;-64
2022/09/28 12:39:32;;;;;;;6.40;2.38;;;11.50;99.90;;;;;;5010895;28;20439;-64
2022/09/28 12:42:04;;;;;;;4.82;2.67;;;11.50;99.90;;;;;;5010258;28;20026;-64
2022/09/28 12:44:48;;;;;;;5.13;2.58;;;11.50;99.90;;;;;;5010232;28;20168;-65
2022/09/28 12:47:21;;;;;;;5.82;2.55;;;11.50;99.90;;;;;;5011116;28;20053;-66
2022/09/28 12:50:28;;;;;;;7.50;2.88;;;11.70;99.90;;;;;;5010098;28;20037;-65
2022/09/28 12:53:25;;;;;;;8.25;2.40;;;11.90;99.90;;;;;;5005799;28;20471;-65
2022/09/28 12:55:59;;;;;;;7.47;2.65;;;12.00;99.90;;;;;;5010069;28;20114;-66
2022/09/28 12:59:02;;;;;;;4.47;2.20;;;12.10;99.90;;;;;;5011021;28;20034;-64
2022/09/28 13:01:46;;;;;;;4.32;2.30;;;12.20;99.90;;;;;;4993096;28;20395;-65
2022/09/28 13:04:34;;;;;;;5.68;2.35;;;12.00;99.90;;;;;;5011010;28;20060;-65
2022/09/28 13:07:10;;;;;;;6.85;2.20;;;12.10;99.90;;;;;;5010272;28;20471;-66
2022/09/28 13:10:00;;;;;;;9.88;2.25;;;12.20;99.90;;;;;;5009901;28;20033;-68
2022/09/28 13:12:33;;;;;;;4.82;1.98;;;12.30;99.90;;;;;;5010587;28;20030;-63
2022/09/28 13:15:16;;;;;;;7.22;2.25;;;12.20;99.90;;;;;;5009906;28;20041;-66
2022/09/28 13:18:02;;;;;;;6.07;2.50;;;12.00;99.90;;;;;;5009363;28;20033;-63
2022/09/28 13:20:41;;;;;;;6.53;1.92;;;11.70;99.90;;;;;;5010154;28;20033;-65
2022/09/28 13:23:27;;;;;;;19.27;2.70;;;11.70;99.90;;;;;;5009819;28;20029;-65
2022/09/28 13:26:08;;;;;;;7.75;2.60;;;11.70;99.90;;;;;;5009491;28;20236;-65
2022/09/28 13:28:36;;;;;;;7.20;2.30;;;11.60;99.90;;;;;;5010127;28;20046;-68
2022/09/28 13:31:04;;;;;;;8.27;2.25;;;11.70;99.90;;;;;;5010240;28;20026;-65